Time;durP1;ratioP1;P1;durP2;ratioP2;P2;SDS_P1;SDS_P2;PMS_P1;PMS_P2;Temp;Humidity;BMP_temperature;BMP_pressure;BME280_temperature;BME280_humidity;BME280_pressure;Samples;Min_cycle;Max_cycle;Signal;HPM_P1;HPM_P2
2022/03/18 00:02:45;;;;;;;18.20;9.20;;;;;;;1.67;47.41;100479.81;219920;1276;22624;-66
2022/03/18 00:07:48;;;;;;;18.10;8.50;;;;;;;1.60;47.53;100486.58;220018;1276;22586;-67
2022/03/18 00:13:01;;;;;;;15.70;8.40;;;;;;;1.53;47.85;100489.30;219964;1277;23814;-67
2022/03/18 00:18:17;;;;;;;19.60;8.60;;;;;;;1.49;48.19;100489.83;220216;1276;23143;-67
2022/03/18 00:23:19;;;;;;;16.90;8.40;;;;;;;1.43;47.89;100488.31;220034;1276;23691;-68
2022/03/18 00:28:34;;;;;;;14.40;7.80;;;;;;;1.38;48.00;100489.95;220227;1276;22477;-67
2022/03/18 00:33:47;;;;;;;17.40;8.90;;;;;;;1.33;48.18;100496.48;220094;1277;24243;-67
2022/03/18 00:38:50;;;;;;;19.30;8.90;;;;;;;1.26;48.08;100497.73;220126;1276;24815;-67
2022/03/18 00:43:56;;;;;;;12.90;7.00;;;;;;;1.19;48.38;100490.65;219974;1277;22537;-66
2022/03/18 00:54:25;;;;;;;14.00;8.30;;;;;;;1.13;48.62;100490.05;220261;1277;24319;-66
2022/03/18 00:59:36;;;;;;;17.50;8.00;;;;;;;1.13;48.55;100489.40;220095;1277;24303;-66
2022/03/18 01:04:39;;;;;;;13.80;7.90;;;;;;;1.13;48.48;100485.71;220035;1277;22470;-67
2022/03/18 01:09:41;;;;;;;18.10;8.70;;;;;;;1.15;48.77;100485.73;220189;1277;23695;-67
2022/03/18 01:14:43;;;;;;;12.20;7.20;;;;;;;1.18;49.04;100484.19;220222;1277;23502;-67
2022/03/18 01:19:46;;;;;;;14.90;8.30;;;;;;;1.16;48.90;100484.48;220262;1276;22482;-67
2022/03/18 01:24:52;;;;;;;16.50;8.10;;;;;;;1.10;49.11;100476.51;220265;1276;22569;-66
2022/03/18 01:29:54;;;;;;;15.20;8.20;;;;;;;1.05;48.99;100477.49;220212;1276;22575;-67
2022/03/18 01:34:56;;;;;;;18.10;8.70;;;;;;;1.00;49.40;100476.13;220256;1276;22565;-66
2022/03/18 01:39:59;;;;;;;14.80;7.90;;;;;;;1.02;49.32;100471.91;220116;1276;22653;-66
2022/03/18 01:45:02;;;;;;;14.70;9.00;;;;;;;1.01;49.16;100472.33;220025;1276;25335;-66
2022/03/18 01:50:06;;;;;;;14.40;8.30;;;;;;;0.99;49.32;100477.48;220299;1276;22686;-65
2022/03/18 01:55:09;;;;;;;16.30;8.90;;;;;;;1.01;49.27;100475.98;220186;1276;25197;-67
2022/03/18 02:00:21;;;;;;;13.50;7.70;;;;;;;0.98;49.40;100478.55;220333;1276;22572;-66
2022/03/18 02:05:37;;;;;;;16.50;8.20;;;;;;;0.90;49.31;100483.54;219983;1276;25223;-67
2022/03/18 02:10:41;;;;;;;19.20;9.10;;;;;;;0.85;49.70;100486.73;219945;1274;22822;-65
2022/03/18 02:15:44;;;;;;;18.30;8.60;;;;;;;0.83;49.87;100490.52;220099;1276;22592;-66
2022/03/18 02:20:46;;;;;;;14.20;8.40;;;;;;;0.84;50.25;100492.43;220211;1276;25328;-65
2022/03/18 02:25:49;;;;;;;15.80;8.00;;;;;;;0.84;49.74;100496.21;220318;1276;22574;-67
2022/03/18 02:30:51;;;;;;;15.10;8.30;;;;;;;0.80;49.72;100499.69;220138;1276;22623;-66
2022/03/18 02:35:54;;;;;;;15.50;9.00;;;;;;;0.79;50.23;100509.91;220057;1276;24815;-66
2022/03/18 02:40:56;;;;;;;16.50;8.70;;;;;;;0.80;50.20;100508.39;220374;1276;22528;-65
2022/03/18 02:45:59;;;;;;;13.50;8.10;;;;;;;0.77;50.28;100513.70;220311;1276;24203;-66
2022/03/18 02:51:01;;;;;;;16.90;9.10;;;;;;;0.78;50.14;100519.95;219840;1276;24237;-67
2022/03/18 02:56:04;;;;;;;14.80;8.90;;;;;;;0.82;50.02;100523.17;220005;1276;25241;-67
2022/03/18 03:01:13;;;;;;;13.20;7.50;;;;;;;0.86;49.99;100528.54;220468;1276;22575;-65
2022/03/18 03:11:47;;;;;;;15.10;9.10;;;;;;;0.81;49.87;100541.88;220193;1276;22853;-67
2022/03/18 03:16:50;;;;;;;17.00;8.90;;;;;;;0.79;49.98;100541.48;220221;1276;25985;-66
2022/03/18 03:21:53;;;;;;;16.30;9.10;;;;;;;0.72;50.06;100545.23;220085;1277;25335;-66
2022/03/18 03:27:04;;;;;;;14.60;7.90;;;;;;;0.71;50.12;100550.45;220290;1275;25349;-66
2022/03/18 03:32:19;;;;;;;16.90;9.10;;;;;;;0.68;50.33;100553.08;219980;1276;22705;-66
2022/03/18 03:37:26;;;;;;;16.00;9.10;;;;;;;0.64;49.79;100560.81;220123;1276;22748;-68
2022/03/18 03:42:29;;;;;;;15.20;8.90;;;;;;;0.55;50.26;100563.19;220429;1276;22585;-66
2022/03/18 03:47:57;;;;;;;14.00;8.80;;;;;;;0.48;50.33;100566.48;220288;1274;22516;-66
2022/03/18 03:53:31;;;;;;;15.30;8.80;;;;;;;0.46;50.77;100574.57;220383;1277;25249;-66
2022/03/18 03:58:33;;;;;;;16.00;8.50;;;;;;;0.43;50.75;100576.88;220097;1275;23732;-65
2022/03/18 04:03:56;;;;;;;17.80;9.00;;;;;;;0.37;51.26;100579.40;220353;1277;22476;-67
2022/03/18 04:09:01;;;;;;;15.80;8.90;;;;;;;0.31;51.01;100587.62;220459;1276;24348;-67
2022/03/18 04:14:03;;;;;;;17.80;8.70;;;;;;;0.23;51.06;100594.63;219596;1276;24248;-66
2022/03/18 04:19:13;;;;;;;16.10;9.60;;;;;;;0.16;51.32;100592.50;219960;1276;22987;-66
2022/03/18 04:24:15;;;;;;;15.10;8.40;;;;;;;0.09;51.22;100602.71;220212;1276;24199;-67
2022/03/18 04:29:17;;;;;;;12.50;7.50;;;;;;;0.00;51.38;100601.13;219998;1276;22474;-66
2022/03/18 04:34:20;;;;;;;19.70;9.20;;;;;;;-0.09;51.65;100596.58;219797;1276;24711;-67
2022/03/18 04:39:22;;;;;;;13.50;8.60;;;;;;;-0.12;52.01;100608.48;219803;1276;22491;-66
2022/03/18 04:44:24;;;;;;;15.00;9.70;;;;;;;-0.12;52.17;100614.20;219835;1276;22486;-67
2022/03/18 04:49:27;;;;;;;15.10;9.00;;;;;;;-0.12;52.54;100621.65;219672;1276;22716;-65
2022/03/18 04:54:29;;;;;;;17.30;9.80;;;;;;;-0.14;52.40;100629.58;219802;1274;22705;-66
2022/03/18 04:59:34;;;;;;;17.60;9.70;;;;;;;-0.14;52.47;100630.84;220098;1275;25441;-66
2022/03/18 05:04:37;;;;;;;17.00;9.60;;;;;;;-0.13;52.68;100636.10;220112;1276;25490;-66
2022/03/18 05:09:41;;;;;;;17.80;9.60;;;;;;;-0.08;52.78;100645.36;220181;1276;22575;-66
2022/03/18 05:14:43;;;;;;;18.00;9.70;;;;;;;-0.11;52.49;100641.08;219948;1276;22542;-67
2022/03/18 05:19:46;;;;;;;13.00;7.80;;;;;;;-0.08;52.43;100644.02;219811;1276;22659;-67
2022/03/18 05:24:57;;;;;;;15.80;9.10;;;;;;;-0.03;52.42;100643.45;220021;1276;22545;-65
2022/03/18 05:29:59;;;;;;;17.30;8.80;;;;;;;0.08;52.39;100648.92;220240;1276;22595;-66
2022/03/18 05:35:06;;;;;;;18.40;8.70;;;;;;;0.16;52.27;100650.62;219659;1276;22588;-66
2022/03/18 05:40:21;;;;;;;16.50;9.50;;;;;;;0.21;52.35;100653.61;220092;1276;22565;-67
2022/03/18 05:45:24;;;;;;;17.90;10.40;;;;;;;0.26;51.84;100651.81;219738;1276;22720;-66
2022/03/18 05:50:30;;;;;;;20.90;11.40;;;;;;;0.27;52.20;100652.08;219806;1276;23017;-66
2022/03/18 06:00:57;;;;;;;18.60;10.80;;;;;;;0.42;52.28;100664.76;219869;1276;22501;-66
2022/03/18 06:06:00;;;;;;;18.50;11.00;;;;;;;0.46;52.16;100672.65;219835;1276;22587;-65
2022/03/18 06:16:26;;;;;;;14.90;9.00;;;;;;;0.50;51.96;100686.13;220047;1276;22466;-66
2022/03/18 06:21:29;;;;;;;17.60;9.20;;;;;;;0.56;52.12;100694.59;219951;1276;23806;-66
2022/03/18 06:26:33;;;;;;;18.70;10.00;;;;;;;0.72;51.80;100700.23;220597;1276;24361;-67
2022/03/18 06:31:37;;;;;;;18.70;10.10;;;;;;;0.84;51.32;100703.08;220456;1276;23726;-67
2022/03/18 06:36:40;;;;;;;19.10;10.50;;;;;;;0.94;50.90;100707.58;220515;1274;22564;-66
2022/03/18 06:41:56;;;;;;;14.80;9.00;;;;;;;1.06;51.01;100714.36;220525;1274;22467;-67
2022/03/18 06:47:01;;;;;;;16.80;10.40;;;;;;;1.21;50.66;100718.63;220632;1274;22530;-67
2022/03/18 06:52:05;;;;;;;20.40;10.70;;;;;;;1.33;50.45;100720.80;220495;1276;25575;-66
2022/03/18 06:57:16;;;;;;;17.60;10.60;;;;;;;1.49;50.08;100719.46;220256;1277;22555;-67
2022/03/18 07:02:39;;;;;;;20.60;10.50;;;;;;;1.61;49.69;100727.95;220676;1277;24194;-67
2022/03/18 07:07:45;;;;;;;18.70;10.40;;;;;;;1.70;49.54;100729.87;220827;1274;23617;-67
2022/03/18 07:12:54;;;;;;;18.40;10.50;;;;;;;1.83;49.24;100738.67;214297;1309;546699;-66
2022/03/18 07:17:59;;;;;;;18.10;10.20;;;;;;;1.90;49.30;100739.84;218970;1282;22764;-68
2022/03/18 07:23:05;;;;;;;18.10;10.20;;;;;;;2.05;49.23;100740.52;213007;1274;10343296;-68
2022/03/18 07:28:11;;;;;;;21.80;15.40;;;;;;;2.35;48.77;100743.31;220756;1273;22841;-67
2022/03/18 07:33:13;;;;;;;20.00;13.30;;;;;;;2.76;48.32;100745.92;220851;1273;23085;-68
2022/03/18 07:38:15;;;;;;;20.80;11.70;;;;;;;2.85;48.25;100754.48;220930;1273;25379;-68
2022/03/18 07:43:20;;;;;;;23.80;12.80;;;;;;;2.96;48.33;100753.60;220916;1273;22835;-67
2022/03/18 07:48:26;;;;;;;21.70;12.70;;;;;;;3.07;48.02;100756.20;221180;1270;22538;-67
2022/03/18 07:53:29;;;;;;;18.70;12.00;;;;;;;3.18;47.83;100759.63;221024;1270;22570;-67
2022/03/18 07:58:32;;;;;;;20.70;12.60;;;;;;;3.15;47.56;100759.56;221626;1270;24316;-67
2022/03/18 08:03:34;;;;;;;24.30;13.10;;;;;;;3.24;47.80;100767.60;221308;1270;22558;-67
2022/03/18 08:08:36;;;;;;;21.10;13.10;;;;;;;3.35;47.66;100775.02;221111;1270;25335;-68
2022/03/18 08:13:39;;;;;;;21.80;13.00;;;;;;;3.51;47.65;100783.16;221148;1271;22565;-68
2022/03/18 08:18:42;;;;;;;24.00;14.10;;;;;;;3.68;47.41;100792.30;221001;1271;22832;-68
2022/03/18 08:24:00;;;;;;;18.70;13.10;;;;;;;3.88;47.41;100793.01;221162;1270;25922;-67
2022/03/18 08:29:05;;;;;;;23.10;13.40;;;;;;;4.10;47.07;100802.03;221092;1270;22604;-68
2022/03/18 08:34:27;;;;;;;22.10;13.90;;;;;;;4.35;46.98;100806.77;220912;1271;22571;-67
2022/03/18 08:39:30;;;;;;;24.10;14.30;;;;;;;4.55;46.71;100810.52;221176;1271;22583;-67
2022/03/18 08:44:33;;;;;;;23.10;14.20;;;;;;;4.88;46.85;100811.90;221048;1271;22701;-66
2022/03/18 08:49:36;;;;;;;24.80;14.00;;;;;;;5.16;46.40;100810.11;221044;1271;22610;-66
2022/03/18 08:54:45;;;;;;;21.80;14.00;;;;;;;5.48;46.26;100819.42;221292;1270;22625;-67
2022/03/18 09:00:05;;;;;;;22.10;14.30;;;;;;;5.70;45.72;100831.20;221118;1270;22571;-67
2022/03/18 09:05:30;;;;;;;26.80;16.40;;;;;;;5.85;45.49;100840.20;221323;1270;22655;-67
2022/03/18 09:10:58;;;;;;;24.60;16.10;;;;;;;6.00;45.24;100843.76;221134;1270;23388;-66
2022/03/18 09:16:16;;;;;;;;;;;;;;;;;;;;;
2022/03/18 09:21:48;;;;;;;25.90;17.40;;;;;;;6.41;45.06;100859.36;221153;1270;23341;-68
2022/03/18 09:27:09;;;;;;;25.00;17.80;;;;;;;6.57;44.83;100858.40;220990;1271;22614;-68
2022/03/18 09:32:12;;;;;;;26.20;18.70;;;;;;;6.78;44.66;100858.24;220942;1271;25322;-67
2022/03/18 09:37:15;;;;;;;27.70;19.00;;;;;;;6.99;44.59;100865.23;220948;1271;25841;-68
2022/03/18 09:42:17;;;;;;;29.20;19.30;;;;;;;7.27;44.66;100873.38;221047;1270;23392;-68
2022/03/18 09:47:24;;;;;;;28.80;19.60;;;;;;;7.51;44.30;100876.89;221412;1270;23396;-67
2022/03/18 09:52:27;;;;;;;31.60;19.50;;;;;;;7.70;44.16;100873.47;221096;1270;22603;-67
2022/03/18 09:57:51;;;;;;;30.80;20.00;;;;;;;8.02;43.83;100878.77;221170;1270;22567;-67
2022/03/18 10:03:13;;;;;;;24.70;16.60;;;;;;;8.09;43.30;100880.56;221077;1270;22836;-67
2022/03/18 10:08:17;;;;;;;27.90;16.70;;;;;;;8.14;43.03;100881.21;221180;1270;22595;-67
2022/03/18 10:13:52;;;;;;;25.70;16.60;;;;;;;8.31;43.16;100881.58;221295;1270;22573;-68
2022/03/18 10:19:14;;;;;;;26.40;17.50;;;;;;;8.60;43.24;100882.13;222144;1270;25322;-67
2022/03/18 10:24:46;;;;;;;26.90;17.70;;;;;;;8.80;42.80;100879.33;222720;1270;22526;-68
2022/03/18 10:31:02;;;;;;;24.70;16.50;;;;;;;8.94;42.42;100881.41;221415;1270;23266;-68
2022/03/18 10:42:10;;;;;;;26.00;17.60;;;;;;;8.97;41.71;100876.48;221650;1270;22762;-67
2022/03/18 10:48:43;;;;;;;39.00;26.80;;;;;;;9.22;41.94;100878.20;221144;1270;25382;-66
2022/03/18 10:54:11;;;;;;;25.90;16.70;;;;;;;9.46;41.69;100871.48;221302;1270;24256;-66
2022/03/18 10:59:17;;;;;;;29.10;18.30;;;;;;;9.45;40.63;100875.36;221069;1270;24230;-67
2022/03/18 11:04:24;;;;;;;29.70;18.50;;;;;;;9.17;40.18;100878.39;221205;1270;23804;-68
2022/03/18 11:11:06;;;;;;;29.40;17.50;;;;;;;9.13;40.67;100881.12;221842;1270;22498;-68
2022/03/18 11:15:08;;;;;;;29.20;17.40;;;;;;;9.31;40.63;100883.41;221302;1270;22565;-68
2022/03/18 11:20:52;;;;;;;29.40;17.60;;;;;;;9.46;39.87;100889.25;221168;1270;25908;-68
2022/03/18 11:27:03;;;;;;;25.60;17.30;;;;;;;9.58;39.84;100884.29;221840;1271;22525;-68
2022/03/18 11:32:32;;;;;;;22.80;16.10;;;;;;;9.67;39.58;100883.08;221819;1270;23795;-68
2022/03/18 11:38:05;;;;;;;27.40;17.60;;;;;;;9.79;39.43;100884.01;220962;1271;22555;-67
2022/03/18 11:43:47;;;;;;;25.90;16.20;;;;;;;9.85;38.90;100890.52;221396;1270;22584;-67
2022/03/18 11:49:12;;;;;;;24.50;15.10;;;;;;;9.85;38.66;100891.85;221385;1270;22612;-68
2022/03/18 11:54:54;;;;;;;25.80;15.80;;;;;;;9.85;38.67;100890.45;221172;1270;22775;-67
2022/03/18 12:00:00;;;;;;;20.50;13.00;;;;;;;9.93;38.74;100895.68;221461;1270;22472;-68
2022/03/18 12:05:20;;;;;;;26.50;14.90;;;;;;;9.95;37.86;100894.48;223416;1270;22660;-68
2022/03/18 12:10:36;;;;;;;21.40;14.60;;;;;;;9.92;37.97;100891.11;221516;1270;22575;-68
2022/03/18 12:15:40;;;;;;;22.80;13.40;;;;;;;9.94;37.95;100886.80;220981;1270;24259;-68
2022/03/18 12:20:45;;;;;;;20.30;13.30;;;;;;;10.05;37.84;100888.14;221232;1270;22537;-68
2022/03/18 12:26:03;;;;;;;20.00;13.80;;;;;;;10.12;37.52;100885.02;221213;1268;22474;-67
2022/03/18 12:31:16;;;;;;;18.10;12.00;;;;;;;10.12;37.43;100883.20;221027;1270;24432;-68
2022/03/18 12:36:47;;;;;;;21.60;12.90;;;;;;;10.19;37.66;100882.91;221294;1271;22561;-68
2022/03/18 12:42:22;;;;;;;18.10;11.70;;;;;;;10.21;37.38;100878.05;221296;1270;22532;-67
2022/03/18 12:47:40;;;;;;;16.10;10.80;;;;;;;10.32;37.39;100877.48;221296;1270;22944;-68
2022/03/18 12:52:43;;;;;;;15.90;10.70;;;;;;;10.38;36.83;100876.30;221165;1270;25412;-68
2022/03/18 12:57:46;;;;;;;18.30;11.50;;;;;;;10.39;36.67;100874.98;221028;1270;22557;-69
2022/03/18 13:02:53;;;;;;;17.10;11.70;;;;;;;10.37;36.54;100870.44;221097;1270;25193;-68
2022/03/18 13:07:58;;;;;;;19.30;12.10;;;;;;;10.38;36.36;100867.20;221254;1270;22708;-67
2022/03/18 13:13:13;;;;;;;18.70;11.60;;;;;;;10.42;36.59;100863.58;221805;1270;22555;-68
2022/03/18 13:18:17;;;;;;;15.60;12.00;;;;;;;10.56;36.50;100867.67;221280;1270;25892;-68
2022/03/18 13:23:20;;;;;;;19.00;11.80;;;;;;;10.56;35.74;100864.52;221571;1270;22672;-70
2022/03/18 13:28:27;;;;;;;23.50;12.90;;;;;;;10.54;35.20;100866.54;221231;1270;24936;-69
2022/03/18 13:33:50;;;;;;;17.70;11.50;;;;;;;10.47;35.09;100860.58;221045;1270;22623;-71
2022/03/18 13:38:55;;;;;;;17.00;11.30;;;;;;;10.56;35.30;100863.54;221189;1270;22487;-68
2022/03/18 13:43:58;;;;;;;17.20;11.20;;;;;;;10.66;35.15;100868.68;221288;1270;25379;-68
2022/03/18 13:49:10;;;;;;;19.20;10.70;;;;;;;10.67;34.76;100866.92;221013;1270;25388;-69
2022/03/18 13:54:16;;;;;;;18.70;11.80;;;;;;;10.65;34.41;100862.98;221150;1270;22556;-68
2022/03/18 13:59:18;;;;;;;16.20;11.10;;;;;;;10.66;34.49;100865.73;221390;1270;25332;-68
2022/03/18 14:04:20;;;;;;;17.60;10.50;;;;;;;10.67;34.39;100864.30;221210;1270;24107;-67
2022/03/18 14:09:23;;;;;;;13.40;9.10;;;;;;;10.72;34.24;100869.27;221943;1270;22916;-67
2022/03/18 14:14:30;;;;;;;12.20;7.80;;;;;;;10.70;33.01;100872.02;220967;1270;22620;-68
2022/03/18 14:19:48;;;;;;;12.90;7.80;;;;;;;10.68;32.79;100864.90;221157;1270;22557;-67
2022/03/18 14:24:53;;;;;;;10.30;7.60;;;;;;;10.69;32.58;100865.58;221685;1271;25935;-68
2022/03/18 14:29:56;;;;;;;13.80;8.60;;;;;;;10.68;32.08;100866.98;221174;1270;22539;-67
2022/03/18 14:34:58;;;;;;;10.10;8.00;;;;;;;10.64;31.48;100863.11;221133;1271;22605;-66
2022/03/18 14:40:02;;;;;;;10.20;7.20;;;;;;;10.59;31.60;100861.67;221160;1270;22690;-67
2022/03/18 14:45:05;;;;;;;13.60;7.90;;;;;;;10.59;31.58;100859.25;221784;1270;22543;-68
2022/03/18 14:50:09;;;;;;;13.80;8.00;;;;;;;10.53;30.62;100864.45;221359;1271;24654;-67
2022/03/18 15:00:38;;;;;;;9.50;6.20;;;;;;;10.36;30.35;100855.20;221045;1270;23945;-67
2022/03/18 15:05:42;;;;;;;9.90;6.30;;;;;;;10.29;30.21;100855.02;221223;1270;22583;-70
2022/03/18 15:10:46;;;;;;;12.50;7.70;;;;;;;10.25;30.32;100854.90;221700;1269;22473;-68
2022/03/18 15:15:51;;;;;;;11.20;7.00;;;;;;;10.20;30.18;100855.64;220909;1271;24206;-69
2022/03/18 15:20:57;;;;;;;11.40;6.80;;;;;;;10.15;29.69;100850.31;220735;1273;24264;-69
2022/03/18 15:26:02;;;;;;;9.80;7.10;;;;;;;10.09;30.12;100846.77;220873;1270;24147;-68
2022/03/18 15:31:05;;;;;;;10.00;6.60;;;;;;;10.05;30.17;100848.89;221141;1270;23907;-68
2022/03/18 15:36:08;;;;;;;10.90;6.40;;;;;;;10.00;30.31;100853.21;221147;1270;25220;-69
2022/03/18 15:41:11;;;;;;;11.60;6.90;;;;;;;9.96;30.36;100857.61;221030;1271;22552;-67
2022/03/18 15:46:22;;;;;;;10.30;7.40;;;;;;;9.89;30.50;100859.00;221199;1270;22536;-69
2022/03/18 15:51:25;;;;;;;11.40;7.50;;;;;;;9.77;31.21;100858.58;221286;1270;25446;-69
2022/03/18 15:56:28;;;;;;;11.20;7.70;;;;;;;9.59;32.39;100863.40;221124;1270;22577;-68
2022/03/18 16:01:31;;;;;;;11.30;7.10;;;;;;;9.37;32.56;100862.55;221055;1270;25382;-67
2022/03/18 16:06:50;;;;;;;9.00;6.60;;;;;;;9.15;32.94;100869.56;220911;1270;25207;-68
2022/03/18 16:11:53;;;;;;;9.50;6.60;;;;;;;8.94;33.19;100877.84;220991;1270;22581;-68
2022/03/18 16:16:57;;;;;;;10.90;7.00;;;;;;;8.74;32.93;100881.29;221071;1271;22622;-69
2022/03/18 16:22:00;;;;;;;12.80;7.80;;;;;;;8.55;32.83;100878.02;220952;1273;22586;-69
2022/03/18 16:27:02;;;;;;;12.90;8.30;;;;;;;8.35;33.02;100883.23;221059;1270;22601;-68
2022/03/18 16:32:06;;;;;;;11.20;7.60;;;;;;;8.12;32.69;100888.38;221056;1271;22565;-67
2022/03/18 16:37:13;;;;;;;15.20;7.80;;;;;;;7.88;33.04;100892.58;220983;1271;22567;-67
2022/03/18 16:42:16;;;;;;;19.50;9.50;;;;;;;7.65;32.70;100897.67;221162;1270;25060;-68
2022/03/18 16:53:11;;;;;;;22.00;10.70;;;;;;;7.23;32.78;100912.01;221172;1273;25854;-69
2022/03/18 16:58:19;;;;;;;20.40;10.10;;;;;;;7.06;32.75;100915.34;221140;1270;25440;-69
2022/03/18 17:03:22;;;;;;;21.50;11.10;;;;;;;6.86;33.33;100924.20;221158;1270;25251;-68
2022/03/18 17:08:26;;;;;;;22.10;10.60;;;;;;;6.66;33.76;100930.95;220886;1270;25374;-68
2022/03/18 17:13:34;;;;;;;19.10;11.30;;;;;;;6.45;33.84;100935.91;221184;1270;25303;-68
2022/03/18 17:18:37;;;;;;;20.40;11.10;;;;;;;6.24;34.07;100945.44;221003;1270;22569;-69
2022/03/18 17:23:50;;;;;;;18.60;11.40;;;;;;;6.05;34.37;100953.63;220988;1270;22686;-67
2022/03/18 17:28:53;;;;;;;20.40;12.00;;;;;;;5.90;34.72;100954.70;221132;1270;22769;-68
2022/03/18 17:33:55;;;;;;;20.60;12.10;;;;;;;5.75;34.85;100960.70;220988;1270;25399;-69
2022/03/18 17:39:18;;;;;;;22.70;11.30;;;;;;;5.61;35.02;100968.20;221321;1270;25326;-70
2022/03/18 17:44:21;;;;;;;22.40;11.00;;;;;;;5.47;35.37;100970.34;220665;1271;25346;-69
2022/03/18 17:49:27;;;;;;;19.30;11.00;;;;;;;5.37;35.50;100973.17;221285;1270;24194;-68
2022/03/18 17:54:29;;;;;;;23.50;12.30;;;;;;;5.25;35.80;100977.27;221651;1270;22573;-67
2022/03/18 17:59:32;;;;;;;28.30;12.60;;;;;;;5.12;36.17;100976.52;221143;1270;25333;-69
2022/03/18 18:04:34;;;;;;;25.80;13.40;;;;;;;5.00;36.47;100981.81;221291;1268;23839;-68
2022/03/18 18:09:39;;;;;;;25.90;13.90;;;;;;;4.85;37.05;100980.11;221047;1270;22527;-68
2022/03/18 18:14:42;;;;;;;28.20;14.90;;;;;;;4.72;37.62;100993.27;221250;1270;22908;-68
2022/03/18 18:25:06;;;;;;;35.00;17.30;;;;;;;4.41;37.99;101009.15;221221;1270;23804;-69
2022/03/18 18:30:09;;;;;;;34.00;19.50;;;;;;;4.30;38.00;101007.95;221381;1270;22482;-67
2022/03/18 18:35:12;;;;;;;33.60;19.30;;;;;;;4.20;38.36;101015.30;221281;1270;22767;-68
2022/03/18 18:40:16;;;;;;;33.60;19.10;;;;;;;4.10;38.40;101018.73;220996;1270;22546;-70
2022/03/18 18:45:18;;;;;;;31.70;18.30;;;;;;;4.00;38.55;101017.95;221096;1270;22567;-68
2022/03/18 18:50:20;;;;;;;34.40;18.00;;;;;;;3.87;38.66;101017.23;221274;1270;22635;-68
2022/03/18 18:55:26;;;;;;;30.00;17.40;;;;;;;3.73;38.84;101018.08;221013;1270;23807;-67
2022/03/18 19:00:31;;;;;;;30.80;17.00;;;;;;;3.60;38.93;101019.33;221479;1270;22520;-67
2022/03/18 19:05:34;;;;;;;30.60;16.50;;;;;;;3.47;39.08;101026.92;221288;1270;22599;-68
2022/03/18 19:10:36;;;;;;;37.40;19.30;;;;;;;3.32;39.08;101032.91;221273;1268;25983;-68
2022/03/18 19:15:47;;;;;;;31.00;18.40;;;;;;;3.17;39.39;101042.58;221437;1268;24247;-69
2022/03/18 19:20:55;;;;;;;34.60;19.70;;;;;;;3.03;39.80;101050.16;221428;1269;23550;-68
2022/03/18 19:26:01;;;;;;;34.70;19.90;;;;;;;2.88;39.98;101048.93;221104;1271;322033;-68
2022/03/18 19:31:03;;;;;;;34.60;20.20;;;;;;;2.74;40.47;101051.29;221403;1271;22644;-68
2022/03/18 19:36:06;;;;;;;39.20;21.80;;;;;;;2.58;40.56;101054.48;221479;1271;22464;-69
2022/03/18 19:41:08;;;;;;;45.60;22.90;;;;;;;2.46;40.96;101053.07;221288;1269;24192;-68
2022/03/18 19:46:14;;;;;;;46.10;23.70;;;;;;;2.35;41.09;101052.64;221157;1271;24302;-67
2022/03/18 19:51:30;;;;;;;63.80;28.70;;;;;;;2.22;42.00;101059.70;221215;1271;22539;-68
2022/03/18 20:01:57;;;;;;;51.90;24.50;;;;;;;1.99;42.63;101069.74;221079;1271;23861;-69
2022/03/18 20:07:05;;;;;;;43.30;21.90;;;;;;;1.85;42.70;101068.88;221195;1271;22560;-69
2022/03/18 20:12:07;;;;;;;41.00;20.80;;;;;;;1.72;43.01;101071.26;221192;1270;23847;-68
2022/03/18 20:17:15;;;;;;;59.00;24.90;;;;;;;1.56;43.43;101075.50;220644;1270;22662;-68
2022/03/18 20:22:34;;;;;;;55.80;28.60;;;;;;;1.44;43.41;101080.02;221226;1270;22697;-68
2022/03/18 20:27:49;;;;;;;63.20;29.60;;;;;;;1.32;43.13;101076.92;221119;1270;25341;-68
2022/03/18 20:32:51;;;;;;;70.30;33.60;;;;;;;1.21;43.08;101068.44;221408;1270;22579;-68
2022/03/18 20:37:54;;;;;;;73.20;33.40;;;;;;;1.15;42.88;101059.71;221041;1270;22886;-68
2022/03/18 20:43:05;;;;;;;75.30;33.60;;;;;;;1.10;43.20;101064.39;221160;1270;22655;-68
2022/03/18 20:48:33;;;;;;;71.80;35.30;;;;;;;1.08;43.07;101068.16;220853;1270;25375;-68
2022/03/18 20:53:42;;;;;;;76.80;34.60;;;;;;;1.06;43.08;101060.61;221025;1270;25272;-71
2022/03/18 20:58:54;;;;;;;82.90;36.60;;;;;;;1.05;42.98;101061.73;221151;1270;22550;-69
2022/03/18 21:04:27;;;;;;;74.30;35.40;;;;;;;1.06;42.89;101068.16;220888;1270;22563;-68
2022/03/18 21:09:32;;;;;;;74.60;33.60;;;;;;;1.06;42.82;101071.81;221137;1270;22544;-69
2022/03/18 21:14:35;;;;;;;82.00;35.40;;;;;;;1.05;42.97;101069.88;221195;1270;25274;-67
2022/03/18 21:19:37;;;;;;;75.60;34.80;;;;;;;1.05;42.82;101062.25;221557;1270;25363;-69
2022/03/18 21:24:44;;;;;;;75.00;34.70;;;;;;;1.04;42.78;101066.77;221283;1270;23754;-69
2022/03/18 21:35:22;;;;;;;64.50;32.00;;;;;;;1.01;42.91;101053.05;221040;1270;22587;-68
2022/03/18 21:40:42;;;;;;;73.70;34.60;;;;;;;0.94;43.04;101062.91;221204;1270;22556;-68
2022/03/18 21:45:48;;;;;;;80.90;34.90;;;;;;;0.87;43.04;101060.39;220904;1271;22531;-67
2022/03/18 21:51:18;;;;;;;71.50;32.40;;;;;;;0.78;43.09;101058.35;221095;1270;22610;-68
2022/03/18 21:56:25;;;;;;;67.90;32.00;;;;;;;0.70;43.09;101064.82;220773;1270;24253;-68
2022/03/18 22:01:38;;;;;;;67.10;32.00;;;;;;;0.63;43.42;101065.27;220723;1271;23379;-67
2022/03/18 22:06:50;;;;;;;68.60;31.00;;;;;;;0.56;43.51;101065.18;221078;1271;22626;-68
2022/03/18 22:12:20;;;;;;;77.10;33.10;;;;;;;0.49;43.88;101064.48;221044;1271;24244;-68
2022/03/18 22:17:36;;;;;;;67.70;32.00;;;;;;;0.42;43.79;101061.55;220792;1271;24326;-69
2022/03/18 22:22:42;;;;;;;69.80;32.00;;;;;;;0.33;43.92;101063.00;221020;1270;24383;-68
2022/03/18 22:27:45;;;;;;;73.80;33.40;;;;;;;0.25;44.15;101063.40;220599;1271;22490;-68
2022/03/18 22:32:48;;;;;;;79.60;36.50;;;;;;;0.18;44.26;101065.69;220973;1270;24191;-67
2022/03/18 22:37:59;;;;;;;72.00;33.70;;;;;;;0.12;44.44;101067.14;221136;1270;22665;-68
2022/03/18 22:43:15;;;;;;;71.00;33.40;;;;;;;0.05;44.42;101067.52;221138;1271;23675;-67
2022/03/18 22:48:42;;;;;;;78.80;34.30;;;;;;;-0.04;44.56;101064.82;221184;1270;22545;-68
2022/03/18 22:53:55;;;;;;;76.40;34.70;;;;;;;-0.13;45.19;101069.77;221982;1270;22566;-67
2022/03/18 22:59:09;;;;;;;82.20;35.90;;;;;;;-0.22;45.17;101070.34;220912;1271;22548;-67
2022/03/18 23:04:45;;;;;;;89.50;39.20;;;;;;;-0.31;45.32;101070.95;221339;1268;22501;-68
2022/03/18 23:09:52;;;;;;;95.10;40.10;;;;;;;-0.37;45.54;101070.30;221291;1268;23096;-68
2022/03/18 23:14:54;;;;;;;97.90;43.50;;;;;;;-0.42;45.51;101071.52;221105;1270;24197;-69
2022/03/18 23:19:57;;;;;;;98.50;42.80;;;;;;;-0.49;45.92;101068.48;221122;1271;25644;-69
2022/03/18 23:25:02;;;;;;;95.20;43.70;;;;;;;-0.58;46.69;101072.16;221023;1271;22698;-67
2022/03/18 23:30:06;;;;;;;96.80;40.70;;;;;;;-0.72;47.44;101073.81;221187;1270;25251;-67
2022/03/18 23:35:14;;;;;;;88.20;42.50;;;;;;;-0.82;47.44;101070.08;221518;1270;25293;-67
2022/03/18 23:40:30;;;;;;;95.30;42.00;;;;;;;-0.93;47.81;101066.77;221038;1271;22566;-67
2022/03/18 23:45:37;;;;;;;93.00;40.80;;;;;;;-1.06;47.80;101060.58;221235;1270;22584;-69
2022/03/18 23:50:40;;;;;;;94.20;40.10;;;;;;;-1.19;48.37;101054.88;221211;1271;25443;-69
2022/03/18 23:55:42;;;;;;;109.30;45.30;;;;;;;-1.31;48.73;101052.52;221005;1271;25440;-68
